Time,TemperatureF,DewpointF,PressureIn,WindDirection,WindDirectionDegrees,WindSpeedMPH,WindSpeedGustMPH,Humidity,HourlyPrecipIn,Conditions,Clouds,dailyrainin,SoftwareType,DateUTC
2013-03-11 00:00:00,35.7,29.2,30.24,WSW,248,0.0,4.0,77,0.00,,,0.00,WSDL version 420,2013-03-11 04:00:00,
2013-03-11 00:02:00,35.7,29.4,30.24,SW,214,0.0,4.0,78,0.00,,,0.00,WSDL version 420,2013-03-11 04:02:00,
2013-03-11 00:05:00,35.7,29.5,30.24,SSE,158,2.1,4.0,78,0.00,,,0.00,WSDL version 420,2013-03-11 04:05:00,
2013-03-11 00:06:00,35.7,29.5,30.24,SW,214,0.7,4.0,78,0.00,,,0.00,WSDL version 420,2013-03-11 04:06:00,
2013-03-11 00:13:00,35.6,29.3,30.24,South,180,3.4,3.4,78,0.00,,,0.00,WSDL version 420,2013-03-11 04:13:00,
2013-03-11 00:19:00,35.5,29.2,30.24,SW,233,0.4,3.4,77,0.00,,,0.00,WSDL version 420,2013-03-11 04:19:00,
2013-03-11 00:25:00,35.6,29.4,30.24,SW,225,0.0,2.0,78,0.00,,,0.00,WSDL version 420,2013-03-11 04:25:00,
2013-03-11 00:31:00,35.7,29.8,30.24,SW,225,0.0,2.2,79,0.00,,,0.00,WSDL version 420,2013-03-11 04:31:00,
2013-03-11 00:38:00,35.4,29.5,30.24,SSE,150,2.7,3.4,79,0.00,,,0.00,WSDL version 420,2013-03-11 04:38:00,
2013-03-11 00:44:00,35.5,29.7,30.24,South,180,3.6,4.0,79,0.00,,,0.00,WSDL version 420,2013-03-11 04:44:00,
2013-03-11 00:50:00,35.4,29.4,30.24,SSW,195,1.0,4.0,78,0.00,,,0.00,WSDL version 420,2013-03-11 04:50:00,
2013-03-11 00:56:00,35.1,29.2,30.24,SW,225,0.0,2.9,78,0.00,,,0.00,WSDL version 420,2013-03-11 04:56:00,
2013-03-11 01:02:00,35.0,28.8,30.24,SSW,203,2.9,3.4,78,0.00,,,0.00,WSDL version 420,2013-03-11 05:02:00,
2013-03-11 01:08:00,35.1,29.1,30.24,South,188,1.6,3.4,79,0.00,,,0.00,WSDL version 420,2013-03-11 05:08:00,
2013-03-11 01:14:00,35.2,29.7,30.24,SE,128,2.2,2.9,80,0.00,,,0.00,WSDL version 420,2013-03-11 05:14:00,
2013-03-11 01:20:00,35.2,29.9,30.24,ESE,113,2.5,2.9,81,0.00,,,0.00,WSDL version 420,2013-03-11 05:20:00,
2013-03-11 01:26:00,35.1,30.2,30.21,SE,128,0.4,2.5,82,0.00,,,0.00,WSDL version 420,2013-03-11 05:26:00,
2013-03-11 01:32:00,35.1,30.0,30.21,NE,38,2.7,5.4,81,0.00,,,0.00,WSDL version 420,2013-03-11 05:32:00,
2013-03-11 01:38:00,35.1,29.9,30.21,SSW,195,2.4,4.0,81,0.00,,,0.00,WSDL version 420,2013-03-11 05:38:00,
2013-03-11 01:44:00,35.1,30.1,30.21,South,186,3.0,3.6,82,0.00,,,0.00,WSDL version 420,2013-03-11 05:44:00,
2013-03-11 01:50:00,35.1,30.0,30.21,SSE,150,2.5,3.6,81,0.00,,,0.00,WSDL version 420,2013-03-11 05:50:00,
2013-03-11 01:56:00,35.1,30.0,30.18,South,173,3.4,3.8,82,0.00,,,0.00,WSDL version 420,2013-03-11 05:56:00,
2013-03-11 02:03:00,35.1,30.3,30.18,SW,225,3.3,4.9,83,0.00,,,0.00,WSDL version 420,2013-03-11 06:03:00,
2013-03-11 02:09:00,35.1,30.0,30.18,SE,135,1.3,4.9,81,0.00,,,0.00,WSDL version 420,2013-03-11 06:09:00,
2013-03-11 02:15:00,35.0,30.6,30.18,South,180,3.4,6.7,82,0.00,,,0.00,WSDL version 420,2013-03-11 06:15:00,
2013-03-11 02:21:00,35.0,30.4,30.18,South,174,3.2,3.8,82,0.00,,,0.00,WSDL version 420,2013-03-11 06:21:00,
2013-03-11 02:27:00,35.1,30.3,30.18,SSW,195,2.2,3.8,82,0.00,,,0.00,WSDL version 420,2013-03-11 06:27:00,
2013-03-11 02:33:00,34.9,29.8,30.18,South,191,3.2,3.4,81,0.00,,,0.00,WSDL version 420,2013-03-11 06:33:00,
2013-03-11 02:39:00,34.9,30.0,30.18,SSW,203,2.5,5.4,82,0.00,,,0.00,WSDL version 420,2013-03-11 06:39:00,
2013-03-11 02:45:00,34.9,30.3,30.18,South,186,3.0,6.3,83,0.00,,,0.00,WSDL version 420,2013-03-11 06:45:00,
2013-03-11 02:51:00,35.0,30.4,30.18,SW,214,3.2,6.3,83,0.00,,,0.00,WSDL version 420,2013-03-11 06:51:00,
2013-03-11 02:56:00,34.9,30.3,30.18,SSW,195,6.1,7.2,83,0.00,,,0.00,WSDL version 420,2013-03-11 06:56:00,
2013-03-11 03:03:00,34.9,30.4,30.18,South,180,3.1,7.2,84,0.00,,,0.00,WSDL version 420,2013-03-11 07:03:00,
2013-03-11 03:09:00,34.9,30.8,30.18,South,173,2.2,4.9,84,0.00,,,0.00,WSDL version 420,2013-03-11 07:09:00,
2013-03-11 03:15:00,34.9,30.8,30.18,SSE,158,3.8,4.9,84,0.00,,,0.00,WSDL version 420,2013-03-11 07:15:00,
2013-03-11 03:21:00,34.9,30.7,30.18,SSE,158,3.5,6.5,84,0.00,,,0.00,WSDL version 420,2013-03-11 07:21:00,
2013-03-11 03:27:00,34.9,30.7,30.18,South,186,4.1,6.5,84,0.00,,,0.00,WSDL version 420,2013-03-11 07:27:00,
2013-03-11 03:33:00,34.9,30.9,30.18,South,191,0.7,4.7,86,0.00,,,0.00,WSDL version 420,2013-03-11 07:33:00,
2013-03-11 03:39:00,35.0,31.1,30.18,South,180,1.9,3.4,86,0.00,,,0.00,WSDL version 420,2013-03-11 07:39:00,
2013-03-11 03:45:00,34.9,30.7,30.18,SSW,210,2.5,4.3,84,0.00,,,0.00,WSDL version 420,2013-03-11 07:45:00,
2013-03-11 03:53:00,34.9,30.7,30.18,SSW,197,4.1,5.8,84,0.00,,,0.00,WSDL version 420,2013-03-11 07:53:00,
2013-03-11 03:59:00,34.9,30.9,30.18,SW,225,3.3,7.8,86,0.00,,,0.00,WSDL version 420,2013-03-11 07:59:00,
2013-03-11 04:05:00,34.9,31.0,30.18,SSW,203,3.3,7.8,86,0.00,,,0.00,WSDL version 420,2013-03-11 08:05:00,
2013-03-11 04:11:00,35.0,31.1,30.18,ENE,60,2.7,5.8,86,0.00,,,0.00,WSDL version 420,2013-03-11 08:11:00,
2013-03-11 04:17:00,35.1,31.4,30.18,WSW,240,2.3,3.4,86,0.00,,,0.00,WSDL version 420,2013-03-11 08:17:00,
2013-03-11 04:23:00,35.1,31.2,30.18,WSW,248,1.7,3.6,86,0.00,,,0.00,WSDL version 420,2013-03-11 08:23:00,
2013-03-11 04:29:00,35.1,30.9,30.15,SSW,203,1.4,3.6,84,0.00,,,0.00,WSDL version 420,2013-03-11 08:29:00,
2013-03-11 04:36:00,35.1,30.9,30.15,South,186,0.0,2.2,84,0.00,,,0.00,WSDL version 420,2013-03-11 08:36:00,
2013-03-11 04:42:00,35.1,31.1,30.18,SSW,203,2.4,2.9,86,0.00,,,0.00,WSDL version 420,2013-03-11 08:42:00,
2013-03-11 04:48:00,35.3,31.4,30.18,SW,225,0.9,3.8,86,0.00,,,0.00,WSDL version 420,2013-03-11 08:48:00,
2013-03-11 04:54:00,35.4,31.8,30.18,WNW,293,1.0,3.8,87,0.00,,,0.00,WSDL version 420,2013-03-11 08:54:00,
2013-03-11 05:00:00,35.4,31.8,30.15,SW,225,0.0,2.9,87,0.00,,,0.00,WSDL version 420,2013-03-11 09:00:00,
2013-03-11 05:06:00,35.3,31.7,30.15,WSW,255,0.4,2.5,87,0.00,,,0.00,WSDL version 420,2013-03-11 09:06:00,
2013-03-11 05:12:00,35.4,32.0,30.15,South,180,0.3,2.7,88,0.00,,,0.00,WSDL version 420,2013-03-11 09:12:00,
2013-03-11 05:18:00,35.4,32.2,30.15,SW,236,1.0,2.7,88,0.00,,,0.00,WSDL version 420,2013-03-11 09:18:00,
2013-03-11 05:24:00,35.4,32.2,30.15,SW,225,0.0,1.3,88,0.00,,,0.00,WSDL version 420,2013-03-11 09:24:00,
2013-03-11 05:30:00,35.4,32.4,30.15,SSE,158,1.9,4.0,89,0.00,,,0.00,WSDL version 420,2013-03-11 09:30:00,
2013-03-11 05:38:00,35.4,32.2,30.15,WSW,248,2.0,2.9,87,0.00,,,0.00,WSDL version 420,2013-03-11 09:38:00,
2013-03-11 05:44:00,35.4,32.2,30.15,SW,219,0.9,2.9,88,0.00,,,0.00,WSDL version 420,2013-03-11 09:44:00,
2013-03-11 05:51:00,35.4,32.5,30.15,South,191,2.2,3.1,89,0.00,,,0.00,WSDL version 420,2013-03-11 09:51:00,
2013-03-11 05:57:00,35.4,32.5,30.15,SW,236,1.8,3.1,89,0.00,,,0.00,WSDL version 420,2013-03-11 09:57:00,
2013-03-11 06:03:00,35.5,32.4,30.15,South,188,2.9,4.9,88,0.00,,,0.00,WSDL version 420,2013-03-11 10:03:00,
2013-03-11 06:09:00,35.6,32.5,30.15,SSW,203,2.7,4.9,89,0.00,,,0.00,WSDL version 420,2013-03-11 10:09:00,
2013-03-11 06:15:00,35.7,32.8,30.15,WSW,248,0.0,2.7,89,0.00,,,0.00,WSDL version 420,2013-03-11 10:15:00,
2013-03-11 06:21:00,35.8,32.8,30.15,SW,225,2.9,2.9,89,0.00,,,0.00,WSDL version 420,2013-03-11 10:21:00,
2013-03-11 06:27:00,36.0,33.0,30.15,SSW,203,0.0,2.9,89,0.00,,,0.00,WSDL version 420,2013-03-11 10:27:00,
2013-03-11 06:33:00,36.0,33.2,30.15,SSW,203,0.0,1.3,90,0.00,,,0.00,WSDL version 420,2013-03-11 10:33:00,
2013-03-11 06:39:00,36.0,33.0,30.15,SSW,203,0.0,0.0,89,0.00,,,0.00,WSDL version 420,2013-03-11 10:39:00,
2013-03-11 06:46:00,36.0,33.1,30.15,WNW,293,0.9,0.9,89,0.00,,,0.00,WSDL version 420,2013-03-11 10:46:00,
2013-03-11 06:52:00,36.0,33.0,30.15,SW,225,2.0,2.5,89,0.00,,,0.00,WSDL version 420,2013-03-11 10:52:00,
2013-03-11 06:58:00,36.0,33.0,30.15,SW,225,2.7,2.7,89,0.00,,,0.00,WSDL version 420,2013-03-11 10:58:00,
2013-03-11 07:04:00,35.8,33.0,30.15,SW,225,2.7,2.7,90,0.00,,,0.00,WSDL version 420,2013-03-11 11:04:00,
2013-03-11 07:10:00,35.8,33.0,30.15,South,180,3.8,3.8,89,0.00,,,0.00,WSDL version 420,2013-03-11 11:10:00,
2013-03-11 07:16:00,35.8,32.8,30.15,South,180,3.8,3.8,89,0.00,,,0.00,WSDL version 420,2013-03-11 11:16:00,
2013-03-11 07:22:00,36.0,33.0,30.15,West,270,2.7,3.8,89,0.00,,,0.00,WSDL version 420,2013-03-11 11:22:00,
2013-03-11 07:28:00,36.0,33.0,30.15,West,270,2.7,2.7,89,0.00,,,0.00,WSDL version 420,2013-03-11 11:28:00,
2013-03-11 07:34:00,36.0,33.2,30.15,West,270,2.7,2.7,90,0.00,,,0.00,WSDL version 420,2013-03-11 11:34:00,
2013-03-11 07:40:00,36.1,33.4,30.15,SW,225,3.8,3.8,90,0.00,,,0.00,WSDL version 420,2013-03-11 11:40:00,
2013-03-11 07:46:00,36.1,33.5,30.15,SW,225,2.5,3.8,90,0.00,,,0.00,WSDL version 420,2013-03-11 11:46:00,
2013-03-11 07:52:00,36.4,33.7,30.15,SSW,210,2.5,3.8,90,0.00,,,0.00,WSDL version 420,2013-03-11 11:52:00,
2013-03-11 07:58:00,36.7,34.0,30.15,SSW,203,2.0,3.6,90,0.00,,,0.00,WSDL version 420,2013-03-11 11:58:00,
2013-03-11 08:05:00,36.9,34.2,30.15,WSW,248,2.5,2.5,90,0.00,,,0.00,WSDL version 420,2013-03-11 12:05:00,
2013-03-11 08:11:00,37.2,34.6,30.15,SW,236,2.6,2.7,91,0.00,,,0.00,WSDL version 420,2013-03-11 12:11:00,
2013-03-11 08:17:00,37.5,34.8,30.15,SSW,203,2.5,4.3,90,0.00,,,0.00,WSDL version 420,2013-03-11 12:17:00,
2013-03-11 08:23:00,37.8,35.3,30.15,SSW,210,0.9,4.7,91,0.00,,,0.00,WSDL version 420,2013-03-11 12:23:00,
2013-03-11 08:29:00,38.0,35.6,30.15,SW,233,1.1,4.7,91,0.00,,,0.00,WSDL version 420,2013-03-11 12:29:00,
2013-03-11 08:35:00,38.1,35.6,30.15,SW,225,1.1,2.2,90,0.00,,,0.00,WSDL version 420,2013-03-11 12:35:00,
2013-03-11 08:41:00,38.3,35.6,30.18,SSW,212,0.8,2.7,90,0.00,,,0.00,WSDL version 420,2013-03-11 12:41:00,
2013-03-11 08:48:00,38.5,35.8,30.18,SW,225,2.2,3.4,90,0.00,,,0.00,WSDL version 420,2013-03-11 12:48:00,
2013-03-11 08:54:00,38.5,35.8,30.18,SSW,203,0.2,2.7,90,0.00,,,0.00,WSDL version 420,2013-03-11 12:54:00,
2013-03-11 09:01:00,38.7,36.0,30.18,SW,219,0.7,3.4,90,0.00,,,0.00,WSDL version 420,2013-03-11 13:01:00,
2013-03-11 09:07:00,38.8,36.2,30.18,South,169,1.3,2.0,90,0.00,,,0.00,WSDL version 420,2013-03-11 13:07:00,
2013-03-11 09:13:00,39.2,36.2,30.18,SSE,158,1.2,2.5,89,0.00,,,0.00,WSDL version 420,2013-03-11 13:13:00,
2013-03-11 09:18:00,39.3,36.3,30.18,SW,218,1.8,2.5,89,0.00,,,0.00,WSDL version 420,2013-03-11 13:18:00,
2013-03-11 09:24:00,39.7,36.7,30.18,NE,45,2.7,4.3,89,0.00,,,0.00,WSDL version 420,2013-03-11 13:24:00,
2013-03-11 09:30:00,40.1,36.8,30.18,SSW,208,2.3,4.3,88,0.00,,,0.00,WSDL version 420,2013-03-11 13:30:00,
2013-03-11 09:38:00,40.5,37.1,30.18,ESE,113,1.2,2.9,88,-99.99,,,-99.99,WSDL version 420,2013-03-11 13:38:00,
2013-03-11 09:44:00,40.6,37.3,30.18,SSW,210,1.8,4.3,88,0.00,,,0.00,WSDL version 420,2013-03-11 13:44:00,
2013-03-11 09:51:00,41.1,37.5,30.18,SW,219,2.8,3.8,87,0.00,,,0.00,WSDL version 420,2013-03-11 13:51:00,
2013-03-11 09:57:00,41.5,37.7,30.18,WNW,293,2.7,5.6,86,0.00,,,0.00,WSDL version 420,2013-03-11 13:57:00,
2013-03-11 10:03:00,42.1,38.1,30.18,WSW,248,2.9,6.3,86,0.00,,,0.00,WSDL version 420,2013-03-11 14:03:00,
2013-03-11 10:09:00,42.1,37.8,30.18,South,174,2.7,6.3,84,0.00,,,0.00,WSDL version 420,2013-03-11 14:09:00,
2013-03-11 10:15:00,42.6,38.2,30.18,South,191,2.1,4.0,84,0.00,,,0.00,WSDL version 420,2013-03-11 14:15:00,
2013-03-11 10:20:00,42.6,37.9,30.18,South,191,3.0,4.0,83,0.00,,,0.00,WSDL version 420,2013-03-11 14:20:00,
2013-03-11 10:26:00,43.2,38.5,30.18,SW,219,2.0,3.1,83,0.00,,,0.00,WSDL version 420,2013-03-11 14:26:00,
2013-03-11 10:32:00,43.5,38.5,30.18,SSW,203,2.3,3.1,82,0.00,,,0.00,WSDL version 420,2013-03-11 14:32:00,
2013-03-11 10:38:00,43.4,38.0,30.18,SW,225,2.9,5.6,81,0.00,,,0.00,WSDL version 420,2013-03-11 14:38:00,
2013-03-11 10:44:00,43.6,38.2,30.18,SW,214,2.6,7.4,81,0.00,,,0.00,WSDL version 420,2013-03-11 14:44:00,
2013-03-11 10:50:00,43.6,38.1,30.18,SSE,158,4.3,4.9,80,0.00,,,0.00,WSDL version 420,2013-03-11 14:50:00,
2013-03-11 10:57:00,43.9,38.1,30.18,WSW,248,2.7,4.3,80,0.00,,,0.00,WSDL version 420,2013-03-11 14:57:00,
2013-03-11 11:03:00,43.9,38.0,30.18,SSW,210,3.1,4.0,79,0.00,,,0.00,WSDL version 420,2013-03-11 15:03:00,
2013-03-11 11:09:00,44.1,38.0,30.18,South,189,2.9,4.3,79,0.00,,,0.00,WSDL version 420,2013-03-11 15:09:00,
2013-03-11 11:15:00,44.2,37.8,30.18,SSW,195,4.5,5.6,78,0.00,,,0.00,WSDL version 420,2013-03-11 15:15:00,
2013-03-11 11:22:00,44.3,37.9,30.18,SW,233,2.8,5.6,78,0.00,,,0.00,WSDL version 420,2013-03-11 15:22:00,
2013-03-11 11:28:00,44.7,37.8,30.15,South,180,2.1,4.3,76,0.00,,,0.00,WSDL version 420,2013-03-11 15:28:00,
2013-03-11 11:34:00,44.7,37.8,30.15,SW,236,2.9,5.6,77,0.00,,,0.00,WSDL version 420,2013-03-11 15:34:00,
2013-03-11 11:40:00,44.8,37.9,30.15,SE,143,3.7,6.0,76,0.00,,,0.00,WSDL version 420,2013-03-11 15:40:00,
2013-03-11 11:48:00,45.0,37.9,30.15,South,191,0.7,4.9,76,-99.99,,,-99.99,WSDL version 420,2013-03-11 15:48:00,
2013-03-11 11:54:00,45.3,37.9,30.15,East,90,2.7,4.0,75,0.00,,,0.00,WSDL version 420,2013-03-11 15:54:00,
2013-03-11 12:00:00,45.1,38.0,30.15,SSE,150,3.4,4.0,76,0.00,,,0.00,WSDL version 420,2013-03-11 16:00:00,
2013-03-11 12:06:00,45.3,38.2,30.15,SSW,203,1.7,6.5,76,0.00,,,0.00,WSDL version 420,2013-03-11 16:06:00,
2013-03-11 12:13:00,45.5,38.2,30.12,South,186,2.5,6.5,75,0.00,,,0.00,WSDL version 420,2013-03-11 16:13:00,
2013-03-11 12:19:00,46.0,38.3,30.12,ESE,120,7.2,8.7,73,0.00,,,0.00,WSDL version 420,2013-03-11 16:19:00,
2013-03-11 12:25:00,46.0,38.5,30.15,SE,128,2.1,8.7,75,0.00,,,0.00,WSDL version 420,2013-03-11 16:25:00,
2013-03-11 12:31:00,46.2,38.7,30.15,South,188,2.3,3.8,75,0.00,,,0.00,WSDL version 420,2013-03-11 16:31:00,
2013-03-11 12:37:00,46.4,38.5,30.15,ESE,120,3.4,4.9,74,0.00,,,0.00,WSDL version 420,2013-03-11 16:37:00,
2013-03-11 12:43:00,46.2,38.5,30.15,SW,225,3.1,5.8,75,0.00,,,0.00,WSDL version 420,2013-03-11 16:43:00,
2013-03-11 12:49:00,46.2,38.6,30.15,SW,214,3.0,5.8,74,0.00,,,0.00,WSDL version 420,2013-03-11 16:49:00,
2013-03-11 12:56:00,46.4,38.6,30.15,South,169,2.4,3.8,74,0.00,,,0.00,WSDL version 420,2013-03-11 16:56:00,
2013-03-11 13:02:00,46.5,38.3,30.15,ESE,113,3.6,4.3,73,0.00,,,0.00,WSDL version 420,2013-03-11 17:02:00,
2013-03-11 13:08:00,46.8,38.6,30.15,SW,225,1.9,4.0,73,0.00,,,0.00,WSDL version 420,2013-03-11 17:08:00,
2013-03-11 13:14:00,46.6,38.5,30.12,SSE,158,5.0,6.3,73,0.00,,,0.00,WSDL version 420,2013-03-11 17:14:00,
2013-03-11 13:20:00,46.7,38.5,30.12,SSE,158,3.6,6.3,73,0.00,,,0.00,WSDL version 420,2013-03-11 17:20:00,
2013-03-11 13:26:00,47.1,38.9,30.12,SSW,203,1.9,6.3,73,0.00,,,0.00,WSDL version 420,2013-03-11 17:26:00,
2013-03-11 13:32:00,47.5,39.0,30.12,SSE,158,1.8,6.3,72,0.00,,,0.00,WSDL version 420,2013-03-11 17:32:00,
2013-03-11 13:38:00,48.0,39.4,30.12,NW,315,3.6,6.0,70,0.00,,,0.00,WSDL version 420,2013-03-11 17:38:00,
2013-03-11 13:44:00,48.3,38.8,30.12,SSE,158,3.1,4.7,69,0.00,,,0.00,WSDL version 420,2013-03-11 17:44:00,
2013-03-11 13:50:00,48.9,39.1,30.12,SSE,158,2.8,4.3,68,0.00,,,0.00,WSDL version 420,2013-03-11 17:50:00,
2013-03-11 13:56:00,49.3,39.2,30.09,SSE,150,2.2,8.7,68,0.00,,,0.00,WSDL version 420,2013-03-11 17:56:00,
2013-03-11 14:03:00,49.5,39.2,30.09,SSE,152,3.6,7.4,66,0.00,,,0.00,WSDL version 420,2013-03-11 18:03:00,
2013-03-11 14:09:00,49.6,38.8,30.09,West,281,3.6,6.0,67,0.00,,,0.00,WSDL version 420,2013-03-11 18:09:00,
2013-03-11 14:15:00,49.6,38.4,30.09,SSW,203,2.9,6.0,65,0.00,,,0.00,WSDL version 420,2013-03-11 18:15:00,
2013-03-11 14:21:00,49.8,38.2,30.09,South,180,2.9,4.9,66,0.00,,,0.00,WSDL version 420,2013-03-11 18:21:00,
2013-03-11 14:27:00,50.1,38.3,30.09,SE,135,3.5,4.7,63,0.00,,,0.00,WSDL version 420,2013-03-11 18:27:00,
2013-03-11 14:33:00,50.4,39.0,30.09,SW,225,4.8,6.3,64,0.00,,,0.00,WSDL version 420,2013-03-11 18:33:00,
2013-03-11 14:39:00,50.5,38.2,30.09,WNW,287,1.8,6.3,63,0.00,,,0.00,WSDL version 420,2013-03-11 18:39:00,
2013-03-11 14:45:00,51.3,38.6,30.09,South,173,5.1,5.8,60,0.00,,,0.00,WSDL version 420,2013-03-11 18:45:00,
2013-03-11 14:51:00,51.5,39.1,30.09,SE,143,1.4,5.8,62,0.00,,,0.00,WSDL version 420,2013-03-11 18:51:00,
2013-03-11 14:58:00,51.5,39.0,30.09,SSW,207,3.5,6.5,62,0.00,,,0.00,WSDL version 420,2013-03-11 18:58:00,
2013-03-11 15:04:00,51.6,38.4,30.09,SE,146,2.6,6.5,59,0.00,,,0.00,WSDL version 420,2013-03-11 19:04:00,
2013-03-11 15:10:00,51.5,37.9,30.09,SW,225,3.8,6.9,60,0.00,,,0.00,WSDL version 420,2013-03-11 19:10:00,
2013-03-11 15:16:00,51.8,38.4,30.09,ESE,113,3.8,6.9,59,0.00,,,0.00,WSDL version 420,2013-03-11 19:16:00,
2013-03-11 15:22:00,51.6,37.8,30.09,West,270,3.6,8.7,60,0.00,,,0.00,WSDL version 420,2013-03-11 19:22:00,
2013-03-11 15:28:00,51.6,37.6,30.09,South,180,0.0,7.2,59,0.00,,,0.00,WSDL version 420,2013-03-11 19:28:00,
2013-03-11 15:34:00,51.6,37.6,30.09,South,173,2.2,8.1,58,0.00,,,0.00,WSDL version 420,2013-03-11 19:34:00,
2013-03-11 15:41:00,51.6,37.8,30.09,SE,143,7.1,8.1,59,0.00,,,0.00,WSDL version 420,2013-03-11 19:41:00,
2013-03-11 15:47:00,51.4,37.2,30.09,South,169,3.2,7.4,58,0.00,,,0.00,WSDL version 420,2013-03-11 19:47:00,
2013-03-11 15:53:00,51.8,38.1,30.09,ESE,105,4.7,6.3,60,0.00,,,0.00,WSDL version 420,2013-03-11 19:53:00,
2013-03-11 15:59:00,51.8,37.5,30.06,SSE,163,6.4,6.9,58,0.00,,,0.00,WSDL version 420,2013-03-11 19:59:00,
2013-03-11 16:05:00,51.6,37.0,30.06,SE,135,5.4,10.3,59,0.00,,,0.00,WSDL version 420,2013-03-11 20:05:00,
2013-03-11 16:12:00,51.4,37.0,30.09,SSE,152,4.7,10.3,57,0.00,,,0.00,WSDL version 420,2013-03-11 20:12:00,
2013-03-11 16:18:00,51.3,36.9,30.09,SSW,203,4.7,6.0,57,0.00,,,0.00,WSDL version 420,2013-03-11 20:18:00,
2013-03-11 16:24:00,51.1,36.7,30.09,ESE,113,3.1,6.0,57,0.00,,,0.00,WSDL version 420,2013-03-11 20:24:00,
2013-03-11 16:30:00,51.1,36.5,30.06,East,90,6.5,8.1,57,0.00,,,0.00,WSDL version 420,2013-03-11 20:30:00,
2013-03-11 16:36:00,51.0,36.8,30.06,SE,135,3.4,8.1,57,0.00,,,0.00,WSDL version 420,2013-03-11 20:36:00,
2013-03-11 16:42:00,50.7,36.6,30.06,SSE,150,8.9,10.5,58,0.00,,,0.00,WSDL version 420,2013-03-11 20:42:00,
2013-03-11 16:48:00,50.5,36.4,30.06,SE,146,5.0,10.5,58,0.00,,,0.00,WSDL version 420,2013-03-11 20:48:00,
2013-03-11 16:54:00,50.4,36.4,30.06,SE,135,7.3,8.5,59,0.00,,,0.00,WSDL version 420,2013-03-11 20:54:00,
2013-03-11 17:01:00,50.2,36.6,30.06,SE,129,2.5,9.4,60,0.00,,,0.00,WSDL version 420,2013-03-11 21:01:00,
2013-03-11 17:07:00,49.8,36.9,30.06,SSE,165,3.3,10.1,61,0.00,,,0.00,WSDL version 420,2013-03-11 21:07:00,
2013-03-11 17:13:00,49.6,37.0,30.06,WNW,293,6.5,10.1,62,0.00,,,0.00,WSDL version 420,2013-03-11 21:13:00,
2013-03-11 17:19:00,49.5,37.0,30.06,SSE,158,6.0,6.5,62,0.00,,,0.00,WSDL version 420,2013-03-11 21:19:00,
2013-03-11 17:25:00,49.2,37.1,30.06,South,180,4.7,6.0,63,0.00,,,0.00,WSDL version 420,2013-03-11 21:25:00,
2013-03-11 17:31:00,49.0,37.2,30.06,SE,135,3.8,7.4,64,0.00,,,0.00,WSDL version 420,2013-03-11 21:31:00,
2013-03-11 17:38:00,48.7,37.3,30.06,West,270,3.8,4.9,65,0.00,,,0.00,WSDL version 420,2013-03-11 21:38:00,
2013-03-11 17:44:00,48.5,37.3,30.06,SE,135,3.4,4.9,65,0.00,,,0.00,WSDL version 420,2013-03-11 21:44:00,
2013-03-11 17:50:00,48.4,37.6,30.06,SSE,150,4.8,7.6,66,0.00,,,0.00,WSDL version 420,2013-03-11 21:50:00,
2013-03-11 17:56:00,48.1,37.5,30.06,SE,135,2.9,7.6,67,0.00,,,0.00,WSDL version 420,2013-03-11 21:56:00,
2013-03-11 18:02:00,47.8,37.4,30.06,South,180,2.0,2.9,67,0.00,,,0.00,WSDL version 420,2013-03-11 22:02:00,
2013-03-11 18:08:00,47.8,37.7,30.06,SSW,203,1.3,4.7,68,0.00,,,0.00,WSDL version 420,2013-03-11 22:08:00,
2013-03-11 18:14:00,47.7,37.8,30.06,ESE,113,2.9,4.7,68,0.00,,,0.00,WSDL version 420,2013-03-11 22:14:00,
2013-03-11 18:20:00,47.5,38.1,30.06,SSE,158,5.8,5.8,70,0.00,,,0.00,WSDL version 420,2013-03-11 22:20:00,
2013-03-11 18:26:00,47.4,38.0,30.06,SE,135,8.1,8.1,70,0.00,,,0.00,WSDL version 420,2013-03-11 22:26:00,
2013-03-11 18:33:00,47.3,38.0,30.06,South,188,1.7,8.1,70,0.00,,,0.00,WSDL version 420,2013-03-11 22:33:00,
2013-03-11 18:39:00,47.1,38.2,30.06,ESE,120,3.8,4.9,71,0.00,,,0.00,WSDL version 420,2013-03-11 22:39:00,
2013-03-11 18:46:00,47.0,38.2,30.06,ESE,113,2.9,4.9,72,0.00,,,0.00,WSDL version 420,2013-03-11 22:46:00,
2013-03-11 18:52:00,46.9,38.3,30.06,ESE,113,2.9,2.9,72,0.00,,,0.00,WSDL version 420,2013-03-11 22:52:00,
2013-03-11 18:58:00,46.9,38.7,30.06,North,0,0.0,2.9,73,0.00,,,0.00,WSDL version 420,2013-03-11 22:58:00,
2013-03-11 19:03:00,46.8,38.8,30.06,North,-999,-999.0,-999.0,74,0.00,,,0.00,WSDL version 420,2013-03-11 23:03:00,
2013-03-11 19:10:00,46.7,38.9,30.06,North,-999,-999.0,-999.0,74,0.00,,,0.00,WSDL version 420,2013-03-11 23:10:00,
2013-03-11 19:16:00,46.6,38.9,30.06,North,-999,-999.0,-999.0,74,0.00,,,0.00,WSDL version 420,2013-03-11 23:16:00,
2013-03-11 19:22:00,46.6,38.8,30.06,North,-999,-999.0,-999.0,74,0.00,,,0.00,WSDL version 420,2013-03-11 23:22:00,
2013-03-11 19:28:00,46.6,38.9,30.06,South,180,0.9,0.9,75,0.00,,,0.00,WSDL version 420,2013-03-11 23:28:00,
2013-03-11 19:34:00,46.5,39.0,30.06,South,180,0.9,0.9,75,0.00,,,0.00,WSDL version 420,2013-03-11 23:34:00,
2013-03-11 19:40:00,46.5,39.3,30.06,South,180,0.9,0.9,75,0.00,,,0.00,WSDL version 420,2013-03-11 23:40:00,
2013-03-11 19:46:00,46.5,39.3,30.06,SW,225,3.1,3.1,76,0.00,,,0.00,WSDL version 420,2013-03-11 23:46:00,
2013-03-11 19:53:00,46.4,39.3,30.06,South,180,2.7,5.4,76,0.00,,,0.00,WSDL version 420,2013-03-11 23:53:00,
2013-03-11 19:59:00,46.4,39.8,30.09,SW,218,3.7,5.4,78,0.00,,,0.00,WSDL version 420,2013-03-11 23:59:00,
2013-03-11 20:05:00,46.4,39.9,30.09,SSW,203,2.0,4.0,79,0.00,,,0.00,WSDL version 420,2013-03-12 00:05:00,
2013-03-11 20:11:00,46.4,40.2,30.06,SSW,203,2.0,2.0,80,0.00,,,0.00,WSDL version 420,2013-03-12 00:11:00,
2013-03-11 20:17:00,46.4,40.1,30.06,South,180,6.5,6.5,79,0.00,,,0.00,WSDL version 420,2013-03-12 00:17:00,
2013-03-11 20:23:00,46.4,40.0,30.06,South,180,6.5,6.5,79,0.00,,,0.00,WSDL version 420,2013-03-12 00:23:00,
2013-03-11 20:29:00,46.3,40.3,30.09,South,180,6.5,6.5,80,0.00,,,0.00,WSDL version 420,2013-03-12 00:29:00,
2013-03-11 20:36:00,46.4,40.3,30.09,North,-999,-999.0,-999.0,79,0.00,,,0.00,WSDL version 420,2013-03-12 00:36:00,
2013-03-11 20:42:00,46.4,40.7,30.09,North,-999,-999.0,-999.0,80,0.00,,,0.00,WSDL version 420,2013-03-12 00:42:00,
2013-03-11 20:48:00,46.5,40.8,30.09,SSW,203,3.1,3.1,80,0.00,,,0.00,WSDL version 420,2013-03-12 00:48:00,
2013-03-11 20:54:00,46.6,41.3,30.09,SSW,203,3.1,3.1,82,0.00,,,0.00,WSDL version 420,2013-03-12 00:54:00,
2013-03-11 21:00:00,46.6,41.6,30.09,SSW,203,3.1,3.1,82,0.00,,,0.00,WSDL version 420,2013-03-12 01:00:00,
2013-03-11 21:06:00,46.5,41.3,30.09,SSE,158,5.8,5.8,82,0.00,,,0.00,WSDL version 420,2013-03-12 01:06:00,
2013-03-11 21:12:00,46.5,41.5,30.06,NW,315,4.3,7.8,82,0.00,,,0.00,WSDL version 420,2013-03-12 01:12:00,
2013-03-11 21:18:00,46.6,41.7,30.06,SSE,158,7.4,7.4,83,0.00,,,0.00,WSDL version 420,2013-03-12 01:18:00,
2013-03-11 21:24:00,46.6,41.9,30.06,SSE,158,3.8,7.4,83,0.00,,,0.00,WSDL version 420,2013-03-12 01:24:00,
2013-03-11 21:30:00,46.6,42.6,30.06,NNE,30,3.0,6.3,86,0.00,,,0.00,WSDL version 420,2013-03-12 01:30:00,
2013-03-11 21:37:00,46.5,42.0,30.06,South,180,4.3,6.3,84,0.00,,,0.00,WSDL version 420,2013-03-12 01:37:00,
2013-03-11 21:43:00,46.6,42.4,30.06,SSE,158,3.1,5.8,84,0.00,,,0.00,WSDL version 420,2013-03-12 01:43:00,
2013-03-11 21:49:00,46.4,42.3,30.06,South,191,2.5,5.8,87,0.00,,,0.00,WSDL version 420,2013-03-12 01:49:00,
2013-03-11 21:55:00,46.4,42.2,30.06,East,90,3.5,4.0,86,0.00,,,0.00,WSDL version 420,2013-03-12 01:55:00,
2013-03-11 22:01:00,46.4,42.3,30.06,SE,135,2.9,4.0,86,0.00,,,0.00,WSDL version 420,2013-03-12 02:01:00,
2013-03-11 22:07:00,46.5,42.7,30.06,SSE,158,3.4,3.4,87,0.00,,,0.00,WSDL version 420,2013-03-12 02:07:00,
2013-03-11 22:13:00,46.6,42.6,30.06,SSW,203,3.2,7.4,86,0.00,,,0.00,WSDL version 420,2013-03-12 02:13:00,
2013-03-11 22:19:00,46.6,42.5,30.06,South,180,1.7,3.8,86,0.00,,,0.00,WSDL version 420,2013-03-12 02:19:00,
2013-03-11 22:25:00,46.6,42.8,30.06,South,186,1.8,4.9,88,0.00,,,0.00,WSDL version 420,2013-03-12 02:25:00,
2013-03-11 22:31:00,46.6,42.8,30.06,NE,45,1.3,6.5,87,0.00,,,0.00,WSDL version 420,2013-03-12 02:31:00,
2013-03-11 22:37:00,46.7,43.2,30.06,SW,225,2.0,6.5,88,0.00,,,0.00,WSDL version 420,2013-03-12 02:37:00,
2013-03-11 22:43:00,46.7,43.2,30.06,South,188,2.3,8.9,88,0.00,,,0.00,WSDL version 420,2013-03-12 02:43:00,
2013-03-11 22:50:00,46.8,43.3,30.06,SSE,165,3.2,8.9,88,0.00,,,0.00,WSDL version 420,2013-03-12 02:50:00,
2013-03-11 22:56:00,46.8,43.6,30.03,SSW,203,1.9,6.3,89,0.00,,,0.00,WSDL version 420,2013-03-12 02:56:00,
2013-03-11 23:02:00,46.8,43.8,30.03,SSE,158,2.9,4.9,90,0.00,,,0.00,WSDL version 420,2013-03-12 03:02:00,
2013-03-11 23:08:00,46.8,44.4,30.03,SE,124,1.0,6.3,91,0.00,,,0.00,WSDL version 420,2013-03-12 03:08:00,
2013-03-11 23:14:00,46.8,44.4,30.03,SE,146,3.8,4.9,92,0.00,,,0.00,WSDL version 420,2013-03-12 03:14:00,
2013-03-11 23:21:00,46.8,44.2,30.03,SE,146,3.2,4.9,91,0.00,,,0.00,WSDL version 420,2013-03-12 03:21:00,
2013-03-11 23:27:00,46.8,44.4,30.03,SW,214,2.2,4.3,91,0.00,,,0.00,WSDL version 420,2013-03-12 03:27:00,
2013-03-11 23:33:00,46.6,44.4,30.03,SW,225,1.1,3.8,91,0.00,,,0.00,WSDL version 420,2013-03-12 03:33:00,
2013-03-11 23:39:00,46.8,44.3,30.03,South,180,2.6,5.6,91,0.00,,,0.00,WSDL version 420,2013-03-12 03:39:00,
2013-03-11 23:45:00,46.8,44.6,30.03,South,180,2.0,5.6,92,0.00,,,0.00,WSDL version 420,2013-03-12 03:45:00,
2013-03-11 23:51:00,46.7,44.9,30.03,ESE,120,4.5,4.9,93,0.00,,,0.00,WSDL version 420,2013-03-12 03:51:00,
2013-03-11 23:58:00,46.6,45.0,30.03,SSE,158,3.1,4.9,93,-99.99,,,-99.99,WSDL version 420,2013-03-12 03:58:00,